sensor_id;sensor_type;location;lat;lon;timestamp;temperature;humidity
796;DHT22;381;48.770;9.188;2023-05-14T00:02:12;14.40;99.90
796;DHT22;381;48.770;9.188;2023-05-14T00:07:14;14.30;99.90
796;DHT22;381;48.770;9.188;2023-05-14T00:12:17;14.30;99.90
796;DHT22;381;48.770;9.188;2023-05-14T00:17:19;14.30;99.90
796;DHT22;381;48.770;9.188;2023-05-14T00:22:21;14.40;99.90
796;DHT22;381;48.770;9.188;2023-05-14T00:27:25;14.40;99.90
796;DHT22;381;48.770;9.188;2023-05-14T00:32:27;14.40;99.90
796;DHT22;381;48.770;9.188;2023-05-14T00:37:29;14.30;99.90
796;DHT22;381;48.770;9.188;2023-05-14T00:42:32;14.30;99.90
796;DHT22;381;48.770;9.188;2023-05-14T00:47:35;14.30;99.90
796;DHT22;381;48.770;9.188;2023-05-14T00:52:39;14.30;99.90
796;DHT22;381;48.770;9.188;2023-05-14T00:57:43;14.30;99.90
796;DHT22;381;48.770;9.188;2023-05-14T01:02:45;14.20;99.90
796;DHT22;381;48.770;9.188;2023-05-14T01:07:52;14.10;99.90
796;DHT22;381;48.770;9.188;2023-05-14T01:13:06;14.00;99.90
796;DHT22;381;48.770;9.188;2023-05-14T01:18:10;14.00;99.90
796;DHT22;381;48.770;9.188;2023-05-14T01:23:14;13.90;99.90
796;DHT22;381;48.770;9.188;2023-05-14T01:28:17;13.80;99.90
796;DHT22;381;48.770;9.188;2023-05-14T01:33:21;13.70;99.90
796;DHT22;381;48.770;9.188;2023-05-14T01:38:28;13.60;99.90
796;DHT22;381;48.770;9.188;2023-05-14T01:43:33;13.50;99.90
796;DHT22;381;48.770;9.188;2023-05-14T01:48:36;13.50;99.90
796;DHT22;381;48.770;9.188;2023-05-14T01:53:40;13.50;99.90
796;DHT22;381;48.770;9.188;2023-05-14T01:58:42;13.40;99.90
796;DHT22;381;48.770;9.188;2023-05-14T02:03:45;13.30;99.90
796;DHT22;381;48.770;9.188;2023-05-14T02:08:48;13.20;99.90
796;DHT22;381;48.770;9.188;2023-05-14T02:13:50;13.20;99.90
796;DHT22;381;48.770;9.188;2023-05-14T02:18:53;13.10;99.90
796;DHT22;381;48.770;9.188;2023-05-14T02:23:56;13.10;99.90
796;DHT22;381;48.770;9.188;2023-05-14T02:28:58;13.10;99.90
796;DHT22;381;48.770;9.188;2023-05-14T02:34:01;13.10;99.90
796;DHT22;381;48.770;9.188;2023-05-14T02:39:05;13.10;99.90
796;DHT22;381;48.770;9.188;2023-05-14T02:44:07;13.10;99.90
796;DHT22;381;48.770;9.188;2023-05-14T02:49:09;13.20;99.90
796;DHT22;381;48.770;9.188;2023-05-14T02:54:12;13.20;99.90
796;DHT22;381;48.770;9.188;2023-05-14T02:59:16;13.30;99.90
796;DHT22;381;48.770;9.188;2023-05-14T03:04:18;13.30;99.90
796;DHT22;381;48.770;9.188;2023-05-14T03:09:21;13.30;99.90
796;DHT22;381;48.770;9.188;2023-05-14T03:14:23;13.40;99.90
796;DHT22;381;48.770;9.188;2023-05-14T03:19:25;13.40;99.90
796;DHT22;381;48.770;9.188;2023-05-14T03:24:29;13.50;99.90
796;DHT22;381;48.770;9.188;2023-05-14T03:29:31;13.60;99.90
796;DHT22;381;48.770;9.188;2023-05-14T03:34:33;13.60;99.90
796;DHT22;381;48.770;9.188;2023-05-14T03:39:36;13.60;99.90
796;DHT22;381;48.770;9.188;2023-05-14T03:44:39;13.70;99.90
796;DHT22;381;48.770;9.188;2023-05-14T03:49:42;13.70;99.90
796;DHT22;381;48.770;9.188;2023-05-14T03:54:47;13.70;99.90
796;DHT22;381;48.770;9.188;2023-05-14T03:59:49;13.70;99.90
796;DHT22;381;48.770;9.188;2023-05-14T04:04:53;13.80;99.90
796;DHT22;381;48.770;9.188;2023-05-14T04:09:56;13.80;99.90
796;DHT22;381;48.770;9.188;2023-05-14T04:15:02;13.80;99.90
796;DHT22;381;48.770;9.188;2023-05-14T04:20:05;13.90;99.90
796;DHT22;381;48.770;9.188;2023-05-14T04:25:09;13.90;99.90
796;DHT22;381;48.770;9.188;2023-05-14T04:30:11;13.90;99.90
796;DHT22;381;48.770;9.188;2023-05-14T04:35:14;13.90;99.90
796;DHT22;381;48.770;9.188;2023-05-14T04:40:17;13.90;99.90
796;DHT22;381;48.770;9.188;2023-05-14T04:45:19;14.00;99.90
796;DHT22;381;48.770;9.188;2023-05-14T04:50:21;14.00;99.90
796;DHT22;381;48.770;9.188;2023-05-14T04:55:25;14.00;99.90
796;DHT22;381;48.770;9.188;2023-05-14T05:00:27;14.00;99.90
796;DHT22;381;48.770;9.188;2023-05-14T05:05:29;14.00;99.90
796;DHT22;381;48.770;9.188;2023-05-14T05:10:33;14.10;99.90
796;DHT22;381;48.770;9.188;2023-05-14T05:15:35;14.10;99.90
796;DHT22;381;48.770;9.188;2023-05-14T05:20:37;14.10;99.90
796;DHT22;381;48.770;9.188;2023-05-14T05:25:40;14.10;99.90
796;DHT22;381;48.770;9.188;2023-05-14T05:30:42;14.10;99.90
796;DHT22;381;48.770;9.188;2023-05-14T05:35:45;14.10;99.90
796;DHT22;381;48.770;9.188;2023-05-14T05:40:49;14.10;99.90
796;DHT22;381;48.770;9.188;2023-05-14T05:45:51;14.10;99.90
796;DHT22;381;48.770;9.188;2023-05-14T05:50:53;14.10;99.90
796;DHT22;381;48.770;9.188;2023-05-14T05:55:56;14.10;99.90
796;DHT22;381;48.770;9.188;2023-05-14T06:00:59;14.20;99.90
796;DHT22;381;48.770;9.188;2023-05-14T06:06:01;14.20;99.90
796;DHT22;381;48.770;9.188;2023-05-14T06:11:04;14.30;99.90
796;DHT22;381;48.770;9.188;2023-05-14T06:16:06;14.40;99.90
796;DHT22;381;48.770;9.188;2023-05-14T06:21:08;14.40;99.90
796;DHT22;381;48.770;9.188;2023-05-14T06:26:12;14.50;99.90
796;DHT22;381;48.770;9.188;2023-05-14T06:31:14;14.60;99.90
796;DHT22;381;48.770;9.188;2023-05-14T06:36:16;14.70;99.90
796;DHT22;381;48.770;9.188;2023-05-14T06:41:19;14.90;99.90
796;DHT22;381;48.770;9.188;2023-05-14T06:46:22;15.00;99.90
796;DHT22;381;48.770;9.188;2023-05-14T06:51:24;15.10;99.90
796;DHT22;381;48.770;9.188;2023-05-14T06:56:28;15.10;99.90
796;DHT22;381;48.770;9.188;2023-05-14T07:01:30;15.10;99.90
796;DHT22;381;48.770;9.188;2023-05-14T07:06:32;15.20;99.90
796;DHT22;381;48.770;9.188;2023-05-14T07:11:35;15.30;99.90
796;DHT22;381;48.770;9.188;2023-05-14T07:16:39;15.40;99.90
796;DHT22;381;48.770;9.188;2023-05-14T07:21:42;15.40;99.90
796;DHT22;381;48.770;9.188;2023-05-14T07:26:46;15.50;99.90
796;DHT22;381;48.770;9.188;2023-05-14T07:31:50;15.70;99.90
796;DHT22;381;48.770;9.188;2023-05-14T07:36:52;15.80;99.90
796;DHT22;381;48.770;9.188;2023-05-14T07:41:56;16.00;99.90
796;DHT22;381;48.770;9.188;2023-05-14T07:46:58;16.20;99.90
796;DHT22;381;48.770;9.188;2023-05-14T07:52:00;16.40;99.90
796;DHT22;381;48.770;9.188;2023-05-14T07:57:04;16.70;99.90
796;DHT22;381;48.770;9.188;2023-05-14T08:02:06;17.10;99.90
796;DHT22;381;48.770;9.188;2023-05-14T08:07:10;17.40;99.90
796;DHT22;381;48.770;9.188;2023-05-14T08:12:13;17.50;99.90
796;DHT22;381;48.770;9.188;2023-05-14T08:17:15;17.50;99.90
796;DHT22;381;48.770;9.188;2023-05-14T08:22:17;17.70;99.90
796;DHT22;381;48.770;9.188;2023-05-14T08:27:21;18.20;99.90
796;DHT22;381;48.770;9.188;2023-05-14T08:32:23;18.60;99.90
796;DHT22;381;48.770;9.188;2023-05-14T08:37:25;18.80;99.90
796;DHT22;381;48.770;9.188;2023-05-14T08:42:28;18.90;99.90
796;DHT22;381;48.770;9.188;2023-05-14T08:47:31;19.20;99.90
796;DHT22;381;48.770;9.188;2023-05-14T08:52:34;19.60;99.90
796;DHT22;381;48.770;9.188;2023-05-14T08:57:38;19.90;99.90
796;DHT22;381;48.770;9.188;2023-05-14T09:02:41;20.10;99.90
796;DHT22;381;48.770;9.188;2023-05-14T09:07:45;20.30;99.90
796;DHT22;381;48.770;9.188;2023-05-14T09:12:52;20.60;99.90
796;DHT22;381;48.770;9.188;2023-05-14T09:17:54;20.50;99.90
796;DHT22;381;48.770;9.188;2023-05-14T09:22:57;20.20;99.90
796;DHT22;381;48.770;9.188;2023-05-14T09:28:04;20.00;99.90
796;DHT22;381;48.770;9.188;2023-05-14T09:33:07;20.10;99.90
796;DHT22;381;48.770;9.188;2023-05-14T09:38:10;20.50;99.90
796;DHT22;381;48.770;9.188;2023-05-14T09:43:13;21.00;99.90
796;DHT22;381;48.770;9.188;2023-05-14T09:48:15;21.20;99.70
796;DHT22;381;48.770;9.188;2023-05-14T09:53:20;21.10;99.90
796;DHT22;381;48.770;9.188;2023-05-14T09:58:23;20.90;98.20
796;DHT22;381;48.770;9.188;2023-05-14T10:03:29;20.50;99.90
796;DHT22;381;48.770;9.188;2023-05-14T10:08:33;20.10;99.70
796;DHT22;381;48.770;9.188;2023-05-14T10:13:39;19.70;99.90
796;DHT22;381;48.770;9.188;2023-05-14T10:18:45;19.30;99.90
796;DHT22;381;48.770;9.188;2023-05-14T10:23:48;19.10;99.90
796;DHT22;381;48.770;9.188;2023-05-14T10:28:52;18.90;99.90
796;DHT22;381;48.770;9.188;2023-05-14T10:33:55;18.90;99.90
796;DHT22;381;48.770;9.188;2023-05-14T10:38:57;19.00;99.90
796;DHT22;381;48.770;9.188;2023-05-14T10:44:07;19.00;99.90
796;DHT22;381;48.770;9.188;2023-05-14T10:49:10;19.10;99.80
796;DHT22;381;48.770;9.188;2023-05-14T10:54:12;19.10;99.90
796;DHT22;381;48.770;9.188;2023-05-14T10:59:18;19.20;99.90
796;DHT22;381;48.770;9.188;2023-05-14T11:04:22;19.40;99.90
796;DHT22;381;48.770;9.188;2023-05-14T11:09:24;19.60;99.90
796;DHT22;381;48.770;9.188;2023-05-14T11:14:28;19.60;99.90
796;DHT22;381;48.770;9.188;2023-05-14T11:19:30;19.50;99.90
796;DHT22;381;48.770;9.188;2023-05-14T11:24:34;19.30;99.90
796;DHT22;381;48.770;9.188;2023-05-14T11:29:38;19.10;99.90
796;DHT22;381;48.770;9.188;2023-05-14T11:34:44;19.00;99.90
796;DHT22;381;48.770;9.188;2023-05-14T11:39:48;18.90;99.90
796;DHT22;381;48.770;9.188;2023-05-14T11:44:52;18.80;99.90
796;DHT22;381;48.770;9.188;2023-05-14T11:49:54;19.00;99.90
796;DHT22;381;48.770;9.188;2023-05-14T11:54:57;19.10;99.90
796;DHT22;381;48.770;9.188;2023-05-14T12:00:00;19.10;99.90
796;DHT22;381;48.770;9.188;2023-05-14T12:05:06;19.10;99.90
796;DHT22;381;48.770;9.188;2023-05-14T12:10:11;19.00;99.90
796;DHT22;381;48.770;9.188;2023-05-14T12:15:15;19.00;99.90
796;DHT22;381;48.770;9.188;2023-05-14T12:20:17;19.00;99.90
796;DHT22;381;48.770;9.188;2023-05-14T12:25:20;19.10;99.90
796;DHT22;381;48.770;9.188;2023-05-14T12:30:23;19.20;99.90
796;DHT22;381;48.770;9.188;2023-05-14T12:35:25;19.30;99.90
796;DHT22;381;48.770;9.188;2023-05-14T12:40:27;19.20;99.90
796;DHT22;381;48.770;9.188;2023-05-14T12:45:31;19.00;99.90
796;DHT22;381;48.770;9.188;2023-05-14T12:50:33;18.90;99.20
796;DHT22;381;48.770;9.188;2023-05-14T12:55:35;18.80;99.90
796;DHT22;381;48.770;9.188;2023-05-14T13:00:38;18.70;99.90
796;DHT22;381;48.770;9.188;2023-05-14T13:05:40;18.70;99.90
796;DHT22;381;48.770;9.188;2023-05-14T13:10:43;18.80;99.90
796;DHT22;381;48.770;9.188;2023-05-14T13:15:46;18.90;99.90
796;DHT22;381;48.770;9.188;2023-05-14T13:20:48;19.20;99.30
796;DHT22;381;48.770;9.188;2023-05-14T13:25:51;19.20;97.90
796;DHT22;381;48.770;9.188;2023-05-14T13:31:05;19.20;98.40
796;DHT22;381;48.770;9.188;2023-05-14T13:36:09;19.00;98.70
796;DHT22;381;48.770;9.188;2023-05-14T13:41:11;18.90;99.90
796;DHT22;381;48.770;9.188;2023-05-14T13:46:15;18.90;99.90
796;DHT22;381;48.770;9.188;2023-05-14T13:51:17;19.00;99.90
796;DHT22;381;48.770;9.188;2023-05-14T13:56:19;19.00;99.80
796;DHT22;381;48.770;9.188;2023-05-14T14:01:22;19.10;99.90
796;DHT22;381;48.770;9.188;2023-05-14T14:06:25;19.20;99.10
796;DHT22;381;48.770;9.188;2023-05-14T14:11:27;19.20;99.90
796;DHT22;381;48.770;9.188;2023-05-14T14:16:31;19.10;99.50
796;DHT22;381;48.770;9.188;2023-05-14T14:21:33;18.90;99.80
796;DHT22;381;48.770;9.188;2023-05-14T14:26:35;18.80;99.90
796;DHT22;381;48.770;9.188;2023-05-14T14:31:39;18.60;99.90
796;DHT22;381;48.770;9.188;2023-05-14T14:36:41;18.40;99.90
796;DHT22;381;48.770;9.188;2023-05-14T14:41:43;18.20;99.90
796;DHT22;381;48.770;9.188;2023-05-14T14:46:47;18.10;99.80
796;DHT22;381;48.770;9.188;2023-05-14T14:51:49;17.90;99.40
796;DHT22;381;48.770;9.188;2023-05-14T14:56:51;17.90;99.90
796;DHT22;381;48.770;9.188;2023-05-14T15:01:54;18.10;99.90
796;DHT22;381;48.770;9.188;2023-05-14T15:06:57;18.30;98.50
796;DHT22;381;48.770;9.188;2023-05-14T15:11:59;18.70;96.80
796;DHT22;381;48.770;9.188;2023-05-14T15:17:02;19.00;97.30
796;DHT22;381;48.770;9.188;2023-05-14T15:22:04;19.20;97.80
796;DHT22;381;48.770;9.188;2023-05-14T15:27:07;19.20;97.30
796;DHT22;381;48.770;9.188;2023-05-14T15:32:10;19.10;98.50
796;DHT22;381;48.770;9.188;2023-05-14T15:37:12;19.00;99.90
796;DHT22;381;48.770;9.188;2023-05-14T15:42:14;18.70;99.90
796;DHT22;381;48.770;9.188;2023-05-14T15:47:18;18.40;99.90
796;DHT22;381;48.770;9.188;2023-05-14T15:52:20;18.10;99.90
796;DHT22;381;48.770;9.188;2023-05-14T15:57:22;17.80;99.90
796;DHT22;381;48.770;9.188;2023-05-14T16:02:26;17.20;99.90
796;DHT22;381;48.770;9.188;2023-05-14T16:07:30;16.60;99.90
796;DHT22;381;48.770;9.188;2023-05-14T16:12:32;16.20;99.90
796;DHT22;381;48.770;9.188;2023-05-14T16:17:35;16.10;99.90
796;DHT22;381;48.770;9.188;2023-05-14T16:22:37;16.00;99.90
796;DHT22;381;48.770;9.188;2023-05-14T16:27:40;16.00;99.90
796;DHT22;381;48.770;9.188;2023-05-14T16:32:43;15.90;99.90
796;DHT22;381;48.770;9.188;2023-05-14T16:37:48;15.70;99.90
796;DHT22;381;48.770;9.188;2023-05-14T16:42:50;15.60;99.90
796;DHT22;381;48.770;9.188;2023-05-14T16:47:53;15.70;99.90
796;DHT22;381;48.770;9.188;2023-05-14T16:52:55;15.70;99.90
796;DHT22;381;48.770;9.188;2023-05-14T16:57:58;15.90;99.90
796;DHT22;381;48.770;9.188;2023-05-14T17:03:03;16.00;99.90
796;DHT22;381;48.770;9.188;2023-05-14T17:08:06;16.30;99.90
796;DHT22;381;48.770;9.188;2023-05-14T17:13:08;16.50;99.90
796;DHT22;381;48.770;9.188;2023-05-14T17:18:11;16.60;99.90
796;DHT22;381;48.770;9.188;2023-05-14T17:23:13;16.60;99.90
796;DHT22;381;48.770;9.188;2023-05-14T17:28:15;16.50;99.90
796;DHT22;381;48.770;9.188;2023-05-14T17:33:19;16.40;99.90
796;DHT22;381;48.770;9.188;2023-05-14T17:38:21;16.30;99.90
796;DHT22;381;48.770;9.188;2023-05-14T17:43:23;16.20;99.90
796;DHT22;381;48.770;9.188;2023-05-14T17:48:26;16.20;99.90
796;DHT22;381;48.770;9.188;2023-05-14T17:53:28;16.00;99.90
796;DHT22;381;48.770;9.188;2023-05-14T17:58:31;15.80;99.90
796;DHT22;381;48.770;9.188;2023-05-14T18:03:34;15.60;99.90
796;DHT22;381;48.770;9.188;2023-05-14T18:08:36;15.40;99.90
796;DHT22;381;48.770;9.188;2023-05-14T18:13:38;15.30;99.90
796;DHT22;381;48.770;9.188;2023-05-14T18:18:42;15.10;99.90
796;DHT22;381;48.770;9.188;2023-05-14T18:23:44;15.00;99.90
796;DHT22;381;48.770;9.188;2023-05-14T18:28:46;14.90;99.90
796;DHT22;381;48.770;9.188;2023-05-14T18:33:50;14.80;99.90
796;DHT22;381;48.770;9.188;2023-05-14T18:38:55;14.70;99.90
796;DHT22;381;48.770;9.188;2023-05-14T18:43:57;14.70;99.90
796;DHT22;381;48.770;9.188;2023-05-14T18:49:00;14.60;99.90
796;DHT22;381;48.770;9.188;2023-05-14T18:54:03;14.40;99.90
796;DHT22;381;48.770;9.188;2023-05-14T18:59:05;14.40;99.90
796;DHT22;381;48.770;9.188;2023-05-14T19:04:09;14.30;99.90
796;DHT22;381;48.770;9.188;2023-05-14T19:09:12;14.30;99.90
796;DHT22;381;48.770;9.188;2023-05-14T19:14:20;14.20;99.90
796;DHT22;381;48.770;9.188;2023-05-14T19:19:24;14.10;99.90
796;DHT22;381;48.770;9.188;2023-05-14T19:24:26;14.00;99.90
796;DHT22;381;48.770;9.188;2023-05-14T19:29:28;14.00;99.90
796;DHT22;381;48.770;9.188;2023-05-14T19:34:33;14.00;99.90
796;DHT22;381;48.770;9.188;2023-05-14T19:39:35;14.00;99.90
796;DHT22;381;48.770;9.188;2023-05-14T19:44:38;13.90;99.90
796;DHT22;381;48.770;9.188;2023-05-14T19:49:41;13.90;99.90
796;DHT22;381;48.770;9.188;2023-05-14T19:54:43;14.00;99.90
796;DHT22;381;48.770;9.188;2023-05-14T19:59:45;14.00;99.90
796;DHT22;381;48.770;9.188;2023-05-14T20:04:49;14.00;99.90
796;DHT22;381;48.770;9.188;2023-05-14T20:09:53;14.10;99.90
796;DHT22;381;48.770;9.188;2023-05-14T20:14:55;14.10;99.90
796;DHT22;381;48.770;9.188;2023-05-14T20:19:59;14.10;99.90
796;DHT22;381;48.770;9.188;2023-05-14T20:25:01;14.00;99.90
796;DHT22;381;48.770;9.188;2023-05-14T20:30:04;14.00;99.90
796;DHT22;381;48.770;9.188;2023-05-14T20:35:08;14.00;99.90
796;DHT22;381;48.770;9.188;2023-05-14T20:40:11;14.00;99.90
796;DHT22;381;48.770;9.188;2023-05-14T20:45:13;13.90;99.90
796;DHT22;381;48.770;9.188;2023-05-14T20:50:16;13.80;99.90
796;DHT22;381;48.770;9.188;2023-05-14T20:55:19;13.80;99.90
796;DHT22;381;48.770;9.188;2023-05-14T21:00:21;13.70;99.90
796;DHT22;381;48.770;9.188;2023-05-14T21:05:25;13.70;99.90
796;DHT22;381;48.770;9.188;2023-05-14T21:10:27;13.60;99.90
796;DHT22;381;48.770;9.188;2023-05-14T21:15:29;13.60;99.90
796;DHT22;381;48.770;9.188;2023-05-14T21:20:33;13.50;99.90
796;DHT22;381;48.770;9.188;2023-05-14T21:25:36;13.40;99.90
796;DHT22;381;48.770;9.188;2023-05-14T21:30:41;13.40;99.90
796;DHT22;381;48.770;9.188;2023-05-14T21:35:46;13.30;99.90
796;DHT22;381;48.770;9.188;2023-05-14T21:40:48;13.30;99.90
796;DHT22;381;48.770;9.188;2023-05-14T21:45:50;13.30;99.90
796;DHT22;381;48.770;9.188;2023-05-14T21:50:53;13.20;99.90
796;DHT22;381;48.770;9.188;2023-05-14T21:55:56;13.20;99.90
796;DHT22;381;48.770;9.188;2023-05-14T22:00:58;13.20;99.90
796;DHT22;381;48.770;9.188;2023-05-14T22:06:01;13.20;99.90
796;DHT22;381;48.770;9.188;2023-05-14T22:11:03;13.20;99.90
796;DHT22;381;48.770;9.188;2023-05-14T22:16:10;13.20;99.90
796;DHT22;381;48.770;9.188;2023-05-14T22:21:13;13.20;99.90
796;DHT22;381;48.770;9.188;2023-05-14T22:26:16;13.20;99.90
796;DHT22;381;48.770;9.188;2023-05-14T22:31:18;13.20;99.90
796;DHT22;381;48.770;9.188;2023-05-14T22:36:22;13.20;99.90
796;DHT22;381;48.770;9.188;2023-05-14T22:41:24;13.10;99.90
796;DHT22;381;48.770;9.188;2023-05-14T22:46:26;13.10;99.90
796;DHT22;381;48.770;9.188;2023-05-14T22:51:29;13.10;99.90
796;DHT22;381;48.770;9.188;2023-05-14T22:56:31;13.10;99.90
796;DHT22;381;48.770;9.188;2023-05-14T23:01:34;13.10;99.90
796;DHT22;381;48.770;9.188;2023-05-14T23:06:37;13.00;99.90
796;DHT22;381;48.770;9.188;2023-05-14T23:11:40;13.00;99.90
796;DHT22;381;48.770;9.188;2023-05-14T23:16:42;13.00;99.90
796;DHT22;381;48.770;9.188;2023-05-14T23:21:46;13.00;99.90
796;DHT22;381;48.770;9.188;2023-05-14T23:26:48;12.90;99.90
796;DHT22;381;48.770;9.188;2023-05-14T23:31:50;12.90;99.90
796;DHT22;381;48.770;9.188;2023-05-14T23:36:54;12.80;99.90
796;DHT22;381;48.770;9.188;2023-05-14T23:41:56;12.80;99.90
796;DHT22;381;48.770;9.188;2023-05-14T23:46:58;12.80;99.90
796;DHT22;381;48.770;9.188;2023-05-14T23:52:01;12.70;99.90
796;DHT22;381;48.770;9.188;2023-05-14T23:57:04;12.70;99.90
